sensor_id;sensor_type;location;lat;lon;timestamp;P1;durP1;ratioP1;P2;durP2;ratioP2
2656;SDS011;1338;48.176;11.792;2023-05-10T00:01:09;1.90;;;1.80;;
2656;SDS011;1338;48.176;11.792;2023-05-10T00:03:39;3.50;;;1.70;;
2656;SDS011;1338;48.176;11.792;2023-05-10T00:06:07;2.20;;;2.10;;
2656;SDS011;1338;48.176;11.792;2023-05-10T00:08:35;2.10;;;2.00;;
2656;SDS011;1338;48.176;11.792;2023-05-10T00:11:03;2.20;;;2.00;;
2656;SDS011;1338;48.176;11.792;2023-05-10T00:13:32;1.80;;;1.70;;
2656;SDS011;1338;48.176;11.792;2023-05-10T00:16:00;1.90;;;1.80;;
2656;SDS011;1338;48.176;11.792;2023-05-10T00:18:28;2.20;;;2.00;;
2656;SDS011;1338;48.176;11.792;2023-05-10T00:20:57;2.03;;;1.87;;
2656;SDS011;1338;48.176;11.792;2023-05-10T00:23:25;2.00;;;1.90;;
2656;SDS011;1338;48.176;11.792;2023-05-10T00:25:53;2.30;;;2.10;;
2656;SDS011;1338;48.176;11.792;2023-05-10T00:28:22;2.10;;;2.00;;
2656;SDS011;1338;48.176;11.792;2023-05-10T00:30:50;3.10;;;2.20;;
2656;SDS011;1338;48.176;11.792;2023-05-10T00:33:18;2.20;;;2.00;;
2656;SDS011;1338;48.176;11.792;2023-05-10T00:35:46;2.20;;;2.10;;
2656;SDS011;1338;48.176;11.792;2023-05-10T00:38:16;2.00;;;1.90;;
2656;SDS011;1338;48.176;11.792;2023-05-10T00:40:44;2.10;;;1.70;;
2656;SDS011;1338;48.176;11.792;2023-05-10T00:43:20;2.00;;;1.90;;
2656;SDS011;1338;48.176;11.792;2023-05-10T00:45:48;1.90;;;1.80;;
2656;SDS011;1338;48.176;11.792;2023-05-10T00:48:17;2.63;;;2.23;;
2656;SDS011;1338;48.176;11.792;2023-05-10T00:50:45;2.00;;;1.90;;
2656;SDS011;1338;48.176;11.792;2023-05-10T00:53:15;2.03;;;1.93;;
2656;SDS011;1338;48.176;11.792;2023-05-10T00:55:44;1.80;;;1.70;;
2656;SDS011;1338;48.176;11.792;2023-05-10T00:58:12;2.00;;;1.90;;
2656;SDS011;1338;48.176;11.792;2023-05-10T01:00:41;2.07;;;1.93;;
2656;SDS011;1338;48.176;11.792;2023-05-10T01:03:10;2.00;;;1.90;;
2656;SDS011;1338;48.176;11.792;2023-05-10T01:05:38;1.90;;;1.80;;
2656;SDS011;1338;48.176;11.792;2023-05-10T01:08:06;1.90;;;1.80;;
2656;SDS011;1338;48.176;11.792;2023-05-10T01:10:37;1.90;;;1.73;;
2656;SDS011;1338;48.176;11.792;2023-05-10T01:13:05;1.70;;;1.60;;
2656;SDS011;1338;48.176;11.792;2023-05-10T01:15:33;1.80;;;1.70;;
2656;SDS011;1338;48.176;11.792;2023-05-10T01:18:01;1.97;;;1.63;;
2656;SDS011;1338;48.176;11.792;2023-05-10T01:20:32;1.53;;;1.43;;
2656;SDS011;1338;48.176;11.792;2023-05-10T01:23:12;2.10;;;1.70;;
2656;SDS011;1338;48.176;11.792;2023-05-10T01:29:18;1.83;;;1.73;;
2656;SDS011;1338;48.176;11.792;2023-05-10T01:34:59;1.80;;;1.70;;
2656;SDS011;1338;48.176;11.792;2023-05-10T01:37:36;1.80;;;1.70;;
2656;SDS011;1338;48.176;11.792;2023-05-10T01:40:12;2.00;;;1.80;;
2656;SDS011;1338;48.176;11.792;2023-05-10T01:42:46;1.70;;;1.60;;
2656;SDS011;1338;48.176;11.792;2023-05-10T01:45:20;1.50;;;1.40;;
2656;SDS011;1338;48.176;11.792;2023-05-10T01:48:01;1.83;;;1.73;;
2656;SDS011;1338;48.176;11.792;2023-05-10T01:50:33;1.80;;;1.70;;
2656;SDS011;1338;48.176;11.792;2023-05-10T01:53:06;1.80;;;1.70;;
2656;SDS011;1338;48.176;11.792;2023-05-10T01:55:39;2.07;;;1.50;;
2656;SDS011;1338;48.176;11.792;2023-05-10T01:58:14;1.90;;;1.80;;
2656;SDS011;1338;48.176;11.792;2023-05-10T02:00:46;1.80;;;1.70;;
2656;SDS011;1338;48.176;11.792;2023-05-10T02:03:20;1.60;;;1.50;;
2656;SDS011;1338;48.176;11.792;2023-05-10T02:05:52;1.70;;;1.60;;
2656;SDS011;1338;48.176;11.792;2023-05-10T02:08:21;1.37;;;1.27;;
2656;SDS011;1338;48.176;11.792;2023-05-10T02:10:52;1.40;;;1.30;;
2656;SDS011;1338;48.176;11.792;2023-05-10T02:13:23;1.53;;;1.43;;
2656;SDS011;1338;48.176;11.792;2023-05-10T02:15:53;1.70;;;1.60;;
2656;SDS011;1338;48.176;11.792;2023-05-10T02:18:23;1.60;;;1.50;;
2656;SDS011;1338;48.176;11.792;2023-05-10T02:20:54;1.57;;;1.47;;
2656;SDS011;1338;48.176;11.792;2023-05-10T02:23:23;1.23;;;1.13;;
2656;SDS011;1338;48.176;11.792;2023-05-10T02:25:54;1.37;;;1.27;;
2656;SDS011;1338;48.176;11.792;2023-05-10T02:28:24;1.40;;;1.30;;
2656;SDS011;1338;48.176;11.792;2023-05-10T02:30:55;1.60;;;1.50;;
2656;SDS011;1338;48.176;11.792;2023-05-10T02:33:26;1.47;;;1.37;;
2656;SDS011;1338;48.176;11.792;2023-05-10T02:35:54;2.10;;;1.80;;
2656;SDS011;1338;48.176;11.792;2023-05-10T02:38:24;1.63;;;1.43;;
2656;SDS011;1338;48.176;11.792;2023-05-10T02:40:55;1.40;;;1.30;;
2656;SDS011;1338;48.176;11.792;2023-05-10T02:43:24;1.70;;;1.60;;
2656;SDS011;1338;48.176;11.792;2023-05-10T02:45:55;1.40;;;1.30;;
2656;SDS011;1338;48.176;11.792;2023-05-10T02:48:23;1.20;;;1.10;;
2656;SDS011;1338;48.176;11.792;2023-05-10T02:50:53;3.57;;;1.70;;
2656;SDS011;1338;48.176;11.792;2023-05-10T02:53:29;1.47;;;1.37;;
2656;SDS011;1338;48.176;11.792;2023-05-10T02:56:01;1.60;;;1.50;;
2656;SDS011;1338;48.176;11.792;2023-05-10T02:58:37;1.70;;;1.60;;
2656;SDS011;1338;48.176;11.792;2023-05-10T03:01:05;1.80;;;1.70;;
2656;SDS011;1338;48.176;11.792;2023-05-10T03:03:34;1.70;;;1.60;;
2656;SDS011;1338;48.176;11.792;2023-05-10T03:06:03;1.37;;;1.27;;
2656;SDS011;1338;48.176;11.792;2023-05-10T03:08:32;1.80;;;1.70;;
2656;SDS011;1338;48.176;11.792;2023-05-10T03:11:04;1.67;;;1.57;;
2656;SDS011;1338;48.176;11.792;2023-05-10T03:13:44;1.60;;;1.50;;
2656;SDS011;1338;48.176;11.792;2023-05-10T03:16:22;1.80;;;1.70;;
2656;SDS011;1338;48.176;11.792;2023-05-10T03:18:56;1.57;;;1.47;;
2656;SDS011;1338;48.176;11.792;2023-05-10T03:21:34;1.50;;;1.40;;
2656;SDS011;1338;48.176;11.792;2023-05-10T03:24:06;1.23;;;1.07;;
2656;SDS011;1338;48.176;11.792;2023-05-10T03:26:38;1.40;;;1.30;;
2656;SDS011;1338;48.176;11.792;2023-05-10T03:29:12;1.40;;;1.30;;
2656;SDS011;1338;48.176;11.792;2023-05-10T03:31:41;1.60;;;1.50;;
2656;SDS011;1338;48.176;11.792;2023-05-10T03:34:09;1.60;;;1.50;;
2656;SDS011;1338;48.176;11.792;2023-05-10T03:36:39;1.50;;;1.40;;
2656;SDS011;1338;48.176;11.792;2023-05-10T03:39:08;3.10;;;1.50;;
2656;SDS011;1338;48.176;11.792;2023-05-10T03:41:37;1.20;;;1.10;;
2656;SDS011;1338;48.176;11.792;2023-05-10T03:44:05;1.60;;;1.47;;
2656;SDS011;1338;48.176;11.792;2023-05-10T03:46:33;1.50;;;1.40;;
2656;SDS011;1338;48.176;11.792;2023-05-10T03:49:01;1.70;;;1.60;;
2656;SDS011;1338;48.176;11.792;2023-05-10T03:51:29;1.87;;;1.30;;
2656;SDS011;1338;48.176;11.792;2023-05-10T03:53:59;1.47;;;1.37;;
2656;SDS011;1338;48.176;11.792;2023-05-10T03:56:27;1.40;;;1.30;;
2656;SDS011;1338;48.176;11.792;2023-05-10T03:58:56;1.30;;;1.20;;
2656;SDS011;1338;48.176;11.792;2023-05-10T04:01:24;1.53;;;1.43;;
2656;SDS011;1338;48.176;11.792;2023-05-10T04:03:52;1.50;;;1.40;;
2656;SDS011;1338;48.176;11.792;2023-05-10T04:06:20;1.53;;;1.43;;
2656;SDS011;1338;48.176;11.792;2023-05-10T04:08:50;1.50;;;1.40;;
2656;SDS011;1338;48.176;11.792;2023-05-10T04:11:19;1.40;;;1.30;;
2656;SDS011;1338;48.176;11.792;2023-05-10T04:13:48;1.60;;;1.50;;
2656;SDS011;1338;48.176;11.792;2023-05-10T04:16:16;1.60;;;1.50;;
2656;SDS011;1338;48.176;11.792;2023-05-10T04:18:44;1.30;;;1.20;;
2656;SDS011;1338;48.176;11.792;2023-05-10T04:21:12;1.40;;;1.30;;
2656;SDS011;1338;48.176;11.792;2023-05-10T04:23:40;1.30;;;1.20;;
2656;SDS011;1338;48.176;11.792;2023-05-10T04:26:08;1.40;;;1.30;;
2656;SDS011;1338;48.176;11.792;2023-05-10T04:28:38;1.40;;;1.30;;
2656;SDS011;1338;48.176;11.792;2023-05-10T04:31:07;1.90;;;1.30;;
2656;SDS011;1338;48.176;11.792;2023-05-10T04:33:36;1.40;;;1.30;;
2656;SDS011;1338;48.176;11.792;2023-05-10T04:36:05;1.30;;;1.20;;
2656;SDS011;1338;48.176;11.792;2023-05-10T04:38:33;1.23;;;1.13;;
2656;SDS011;1338;48.176;11.792;2023-05-10T04:41:04;1.50;;;1.40;;
2656;SDS011;1338;48.176;11.792;2023-05-10T04:43:33;1.40;;;1.30;;
2656;SDS011;1338;48.176;11.792;2023-05-10T04:46:03;1.30;;;1.20;;
2656;SDS011;1338;48.176;11.792;2023-05-10T04:48:31;1.80;;;1.40;;
2656;SDS011;1338;48.176;11.792;2023-05-10T04:50:59;1.40;;;1.30;;
2656;SDS011;1338;48.176;11.792;2023-05-10T04:53:27;1.40;;;1.30;;
2656;SDS011;1338;48.176;11.792;2023-05-10T04:55:55;1.47;;;1.37;;
2656;SDS011;1338;48.176;11.792;2023-05-10T04:58:23;1.43;;;1.33;;
2656;SDS011;1338;48.176;11.792;2023-05-10T05:00:51;1.77;;;1.40;;
2656;SDS011;1338;48.176;11.792;2023-05-10T05:03:20;1.60;;;1.50;;
2656;SDS011;1338;48.176;11.792;2023-05-10T05:05:49;1.23;;;1.13;;
2656;SDS011;1338;48.176;11.792;2023-05-10T05:08:17;1.40;;;1.30;;
2656;SDS011;1338;48.176;11.792;2023-05-10T05:10:45;1.30;;;1.20;;
2656;SDS011;1338;48.176;11.792;2023-05-10T05:13:16;1.57;;;1.47;;
2656;SDS011;1338;48.176;11.792;2023-05-10T05:15:44;1.30;;;1.20;;
2656;SDS011;1338;48.176;11.792;2023-05-10T05:18:13;1.40;;;1.30;;
2656;SDS011;1338;48.176;11.792;2023-05-10T05:20:42;1.70;;;1.60;;
2656;SDS011;1338;48.176;11.792;2023-05-10T05:23:10;1.43;;;1.30;;
2656;SDS011;1338;48.176;11.792;2023-05-10T05:25:38;1.40;;;1.30;;
2656;SDS011;1338;48.176;11.792;2023-05-10T05:28:06;1.40;;;1.30;;
2656;SDS011;1338;48.176;11.792;2023-05-10T05:30:34;1.53;;;1.43;;
2656;SDS011;1338;48.176;11.792;2023-05-10T05:33:02;1.60;;;1.50;;
2656;SDS011;1338;48.176;11.792;2023-05-10T05:35:31;1.57;;;1.47;;
2656;SDS011;1338;48.176;11.792;2023-05-10T05:38:00;1.23;;;1.13;;
2656;SDS011;1338;48.176;11.792;2023-05-10T05:40:28;1.50;;;1.40;;
2656;SDS011;1338;48.176;11.792;2023-05-10T05:42:56;1.30;;;1.20;;
2656;SDS011;1338;48.176;11.792;2023-05-10T05:45:24;1.43;;;1.33;;
2656;SDS011;1338;48.176;11.792;2023-05-10T05:47:52;1.50;;;1.40;;
2656;SDS011;1338;48.176;11.792;2023-05-10T05:50:20;1.60;;;1.30;;
2656;SDS011;1338;48.176;11.792;2023-05-10T05:52:48;1.47;;;1.37;;
2656;SDS011;1338;48.176;11.792;2023-05-10T05:55:18;1.37;;;1.27;;
2656;SDS011;1338;48.176;11.792;2023-05-10T05:57:46;1.40;;;1.30;;
2656;SDS011;1338;48.176;11.792;2023-05-10T06:00:15;1.50;;;1.40;;
2656;SDS011;1338;48.176;11.792;2023-05-10T06:02:44;2.47;;;1.33;;
2656;SDS011;1338;48.176;11.792;2023-05-10T06:05:12;1.77;;;1.60;;
2656;SDS011;1338;48.176;11.792;2023-05-10T06:07:41;1.40;;;1.30;;
2656;SDS011;1338;48.176;11.792;2023-05-10T06:10:09;1.40;;;1.23;;
2656;SDS011;1338;48.176;11.792;2023-05-10T06:12:39;1.60;;;1.50;;
2656;SDS011;1338;48.176;11.792;2023-05-10T06:15:07;1.53;;;1.43;;
2656;SDS011;1338;48.176;11.792;2023-05-10T06:17:36;1.43;;;1.33;;
2656;SDS011;1338;48.176;11.792;2023-05-10T06:20:05;1.47;;;1.37;;
2656;SDS011;1338;48.176;11.792;2023-05-10T06:22:35;1.50;;;1.40;;
2656;SDS011;1338;48.176;11.792;2023-05-10T06:25:03;1.87;;;1.77;;
2656;SDS011;1338;48.176;11.792;2023-05-10T06:27:31;1.40;;;1.30;;
2656;SDS011;1338;48.176;11.792;2023-05-10T06:30:01;1.70;;;1.57;;
2656;SDS011;1338;48.176;11.792;2023-05-10T06:32:38;1.97;;;1.50;;
2656;SDS011;1338;48.176;11.792;2023-05-10T06:35:07;2.00;;;1.77;;
2656;SDS011;1338;48.176;11.792;2023-05-10T06:37:36;2.10;;;1.90;;
2656;SDS011;1338;48.176;11.792;2023-05-10T06:40:04;2.00;;;1.90;;
2656;SDS011;1338;48.176;11.792;2023-05-10T06:42:33;1.70;;;1.60;;
2656;SDS011;1338;48.176;11.792;2023-05-10T06:45:03;1.70;;;1.60;;
2656;SDS011;1338;48.176;11.792;2023-05-10T06:47:32;2.03;;;1.93;;
2656;SDS011;1338;48.176;11.792;2023-05-10T06:50:04;2.20;;;2.03;;
2656;SDS011;1338;48.176;11.792;2023-05-10T06:52:33;2.30;;;2.10;;
2656;SDS011;1338;48.176;11.792;2023-05-10T06:55:01;2.20;;;2.00;;
2656;SDS011;1338;48.176;11.792;2023-05-10T06:57:30;2.50;;;2.30;;
2656;SDS011;1338;48.176;11.792;2023-05-10T06:59:59;2.53;;;2.33;;
2656;SDS011;1338;48.176;11.792;2023-05-10T07:02:29;2.10;;;1.90;;
2656;SDS011;1338;48.176;11.792;2023-05-10T07:04:57;2.23;;;2.03;;
2656;SDS011;1338;48.176;11.792;2023-05-10T07:07:40;2.43;;;2.27;;
2656;SDS011;1338;48.176;11.792;2023-05-10T07:10:09;2.60;;;2.40;;
2656;SDS011;1338;48.176;11.792;2023-05-10T07:12:37;2.10;;;2.00;;
2656;SDS011;1338;48.176;11.792;2023-05-10T07:15:06;2.23;;;2.07;;
2656;SDS011;1338;48.176;11.792;2023-05-10T07:17:37;2.20;;;2.10;;
2656;SDS011;1338;48.176;11.792;2023-05-10T07:20:08;2.37;;;2.03;;
2656;SDS011;1338;48.176;11.792;2023-05-10T07:22:36;2.60;;;2.40;;
2656;SDS011;1338;48.176;11.792;2023-05-10T07:25:05;2.60;;;2.40;;
2656;SDS011;1338;48.176;11.792;2023-05-10T07:27:33;2.17;;;1.97;;
2656;SDS011;1338;48.176;11.792;2023-05-10T07:30:02;2.23;;;2.03;;
2656;SDS011;1338;48.176;11.792;2023-05-10T07:32:30;2.50;;;2.30;;
2656;SDS011;1338;48.176;11.792;2023-05-10T07:35:00;2.40;;;2.20;;
2656;SDS011;1338;48.176;11.792;2023-05-10T07:37:29;2.40;;;2.20;;
2656;SDS011;1338;48.176;11.792;2023-05-10T07:39:57;2.20;;;2.07;;
2656;SDS011;1338;48.176;11.792;2023-05-10T07:42:25;2.43;;;2.20;;
2656;SDS011;1338;48.176;11.792;2023-05-10T07:44:54;2.53;;;2.33;;
2656;SDS011;1338;48.176;11.792;2023-05-10T07:47:22;2.37;;;2.17;;
2656;SDS011;1338;48.176;11.792;2023-05-10T07:49:50;2.37;;;2.17;;
2656;SDS011;1338;48.176;11.792;2023-05-10T07:52:20;1.90;;;1.80;;
2656;SDS011;1338;48.176;11.792;2023-05-10T07:54:48;2.33;;;2.13;;
2656;SDS011;1338;48.176;11.792;2023-05-10T07:57:16;2.40;;;2.20;;
2656;SDS011;1338;48.176;11.792;2023-05-10T07:59:45;2.10;;;1.90;;
2656;SDS011;1338;48.176;11.792;2023-05-10T08:02:13;2.50;;;2.30;;
2656;SDS011;1338;48.176;11.792;2023-05-10T08:07:22;2.47;;;2.27;;
2656;SDS011;1338;48.176;11.792;2023-05-10T08:09:51;2.30;;;2.10;;
2656;SDS011;1338;48.176;11.792;2023-05-10T08:12:19;2.70;;;2.50;;
2656;SDS011;1338;48.176;11.792;2023-05-10T08:14:47;3.00;;;2.77;;
2656;SDS011;1338;48.176;11.792;2023-05-10T08:17:15;2.47;;;2.27;;
2656;SDS011;1338;48.176;11.792;2023-05-10T08:19:45;2.20;;;2.10;;
2656;SDS011;1338;48.176;11.792;2023-05-10T08:22:13;2.50;;;2.30;;
2656;SDS011;1338;48.176;11.792;2023-05-10T08:24:43;2.50;;;2.30;;
2656;SDS011;1338;48.176;11.792;2023-05-10T08:27:11;2.17;;;2.07;;
2656;SDS011;1338;48.176;11.792;2023-05-10T08:29:39;2.17;;;2.00;;
2656;SDS011;1338;48.176;11.792;2023-05-10T08:32:15;2.10;;;2.00;;
2656;SDS011;1338;48.176;11.792;2023-05-10T08:34:43;2.10;;;2.00;;
2656;SDS011;1338;48.176;11.792;2023-05-10T08:37:11;2.50;;;2.30;;
2656;SDS011;1338;48.176;11.792;2023-05-10T08:39:40;2.30;;;2.10;;
2656;SDS011;1338;48.176;11.792;2023-05-10T08:42:09;2.70;;;2.00;;
2656;SDS011;1338;48.176;11.792;2023-05-10T08:44:38;2.33;;;2.13;;
2656;SDS011;1338;48.176;11.792;2023-05-10T08:47:07;2.27;;;2.07;;
2656;SDS011;1338;48.176;11.792;2023-05-10T08:49:37;2.20;;;2.00;;
2656;SDS011;1338;48.176;11.792;2023-05-10T08:52:06;2.27;;;2.10;;
2656;SDS011;1338;48.176;11.792;2023-05-10T08:54:35;2.10;;;1.90;;
2656;SDS011;1338;48.176;11.792;2023-05-10T08:57:04;1.90;;;1.80;;
2656;SDS011;1338;48.176;11.792;2023-05-10T08:59:33;2.20;;;2.10;;
2656;SDS011;1338;48.176;11.792;2023-05-10T09:02:01;2.10;;;2.00;;
2656;SDS011;1338;48.176;11.792;2023-05-10T09:04:32;2.00;;;1.80;;
2656;SDS011;1338;48.176;11.792;2023-05-10T09:07:00;2.23;;;2.13;;
2656;SDS011;1338;48.176;11.792;2023-05-10T09:09:28;2.00;;;1.90;;
2656;SDS011;1338;48.176;11.792;2023-05-10T09:11:57;1.80;;;1.70;;
2656;SDS011;1338;48.176;11.792;2023-05-10T09:14:25;1.80;;;1.70;;
2656;SDS011;1338;48.176;11.792;2023-05-10T09:16:55;2.17;;;2.07;;
2656;SDS011;1338;48.176;11.792;2023-05-10T09:19:24;2.27;;;2.07;;
2656;SDS011;1338;48.176;11.792;2023-05-10T09:21:52;2.40;;;2.20;;
2656;SDS011;1338;48.176;11.792;2023-05-10T09:24:20;1.70;;;1.60;;
2656;SDS011;1338;48.176;11.792;2023-05-10T09:26:53;1.90;;;1.80;;
2656;SDS011;1338;48.176;11.792;2023-05-10T09:29:21;2.00;;;1.90;;
2656;SDS011;1338;48.176;11.792;2023-05-10T09:31:50;1.77;;;1.67;;
2656;SDS011;1338;48.176;11.792;2023-05-10T09:34:28;2.10;;;1.60;;
2656;SDS011;1338;48.176;11.792;2023-05-10T09:36:57;1.83;;;1.73;;
2656;SDS011;1338;48.176;11.792;2023-05-10T09:39:31;2.10;;;2.00;;
2656;SDS011;1338;48.176;11.792;2023-05-10T09:41:59;1.70;;;1.60;;
2656;SDS011;1338;48.176;11.792;2023-05-10T09:44:30;2.27;;;2.07;;
2656;SDS011;1338;48.176;11.792;2023-05-10T09:46:59;2.07;;;1.87;;
2656;SDS011;1338;48.176;11.792;2023-05-10T09:49:29;1.80;;;1.70;;
2656;SDS011;1338;48.176;11.792;2023-05-10T09:51:59;1.90;;;1.80;;
2656;SDS011;1338;48.176;11.792;2023-05-10T09:54:29;2.30;;;2.10;;
2656;SDS011;1338;48.176;11.792;2023-05-10T09:56:58;1.70;;;1.60;;
2656;SDS011;1338;48.176;11.792;2023-05-10T09:59:27;2.10;;;1.90;;
2656;SDS011;1338;48.176;11.792;2023-05-10T10:01:57;1.90;;;1.80;;
2656;SDS011;1338;48.176;11.792;2023-05-10T10:04:28;2.30;;;1.80;;
2656;SDS011;1338;48.176;11.792;2023-05-10T10:07:00;2.00;;;1.90;;
2656;SDS011;1338;48.176;11.792;2023-05-10T10:09:29;2.37;;;1.80;;
2656;SDS011;1338;48.176;11.792;2023-05-10T10:11:59;1.63;;;1.53;;
2656;SDS011;1338;48.176;11.792;2023-05-10T10:14:27;2.90;;;1.90;;
2656;SDS011;1338;48.176;11.792;2023-05-10T10:16:56;1.73;;;1.63;;
2656;SDS011;1338;48.176;11.792;2023-05-10T10:19:35;2.03;;;1.70;;
2656;SDS011;1338;48.176;11.792;2023-05-10T10:22:04;1.43;;;1.33;;
2656;SDS011;1338;48.176;11.792;2023-05-10T10:24:32;2.67;;;1.57;;
2656;SDS011;1338;48.176;11.792;2023-05-10T10:27:02;1.90;;;1.80;;
2656;SDS011;1338;48.176;11.792;2023-05-10T10:29:39;1.80;;;1.70;;
2656;SDS011;1338;48.176;11.792;2023-05-10T10:32:19;1.80;;;1.70;;
2656;SDS011;1338;48.176;11.792;2023-05-10T10:34:55;1.80;;;1.70;;
2656;SDS011;1338;48.176;11.792;2023-05-10T10:37:23;1.90;;;1.80;;
2656;SDS011;1338;48.176;11.792;2023-05-10T10:40:22;2.27;;;2.07;;
2656;SDS011;1338;48.176;11.792;2023-05-10T10:42:51;2.13;;;1.93;;
2656;SDS011;1338;48.176;11.792;2023-05-10T10:45:21;2.60;;;2.40;;
2656;SDS011;1338;48.176;11.792;2023-05-10T10:47:53;3.30;;;2.23;;
2656;SDS011;1338;48.176;11.792;2023-05-10T10:50:45;2.23;;;2.03;;
2656;SDS011;1338;48.176;11.792;2023-05-10T10:53:13;2.57;;;1.90;;
2656;SDS011;1338;48.176;11.792;2023-05-10T10:55:45;2.00;;;1.90;;
2656;SDS011;1338;48.176;11.792;2023-05-10T10:58:28;1.97;;;1.87;;
2656;SDS011;1338;48.176;11.792;2023-05-10T11:01:10;2.10;;;1.90;;
2656;SDS011;1338;48.176;11.792;2023-05-10T11:03:40;1.97;;;1.87;;
2656;SDS011;1338;48.176;11.792;2023-05-10T11:06:10;2.33;;;2.10;;
2656;SDS011;1338;48.176;11.792;2023-05-10T11:08:41;2.60;;;2.40;;
2656;SDS011;1338;48.176;11.792;2023-05-10T11:11:14;2.27;;;2.17;;
2656;SDS011;1338;48.176;11.792;2023-05-10T11:13:43;2.30;;;1.33;;
2656;SDS011;1338;48.176;11.792;2023-05-10T11:16:16;2.60;;;2.40;;
2656;SDS011;1338;48.176;11.792;2023-05-10T11:18:53;2.10;;;2.00;;
2656;SDS011;1338;48.176;11.792;2023-05-10T11:21:23;2.47;;;2.27;;
2656;SDS011;1338;48.176;11.792;2023-05-10T11:23:51;2.37;;;2.17;;
2656;SDS011;1338;48.176;11.792;2023-05-10T11:26:22;2.63;;;2.43;;
2656;SDS011;1338;48.176;11.792;2023-05-10T11:28:53;2.00;;;1.90;;
2656;SDS011;1338;48.176;11.792;2023-05-10T11:31:25;2.93;;;2.73;;
2656;SDS011;1338;48.176;11.792;2023-05-10T11:33:54;3.00;;;2.20;;
2656;SDS011;1338;48.176;11.792;2023-05-10T11:36:25;1.90;;;1.80;;
2656;SDS011;1338;48.176;11.792;2023-05-10T11:38:55;1.77;;;1.67;;
2656;SDS011;1338;48.176;11.792;2023-05-10T11:41:24;2.30;;;2.10;;
2656;SDS011;1338;48.176;11.792;2023-05-10T11:43:55;2.60;;;2.40;;
2656;SDS011;1338;48.176;11.792;2023-05-10T11:46:24;2.30;;;2.13;;
2656;SDS011;1338;48.176;11.792;2023-05-10T11:48:53;2.13;;;1.93;;
2656;SDS011;1338;48.176;11.792;2023-05-10T11:51:25;2.17;;;2.07;;
2656;SDS011;1338;48.176;11.792;2023-05-10T11:53:54;2.53;;;2.33;;
2656;SDS011;1338;48.176;11.792;2023-05-10T11:56:24;2.67;;;2.47;;
2656;SDS011;1338;48.176;11.792;2023-05-10T11:58:53;2.27;;;2.07;;
2656;SDS011;1338;48.176;11.792;2023-05-10T12:01:23;2.50;;;2.30;;
2656;SDS011;1338;48.176;11.792;2023-05-10T12:03:52;2.50;;;2.00;;
2656;SDS011;1338;48.176;11.792;2023-05-10T12:06:27;2.07;;;1.90;;
2656;SDS011;1338;48.176;11.792;2023-05-10T12:08:57;2.03;;;1.93;;
2656;SDS011;1338;48.176;11.792;2023-05-10T12:11:26;2.13;;;2.03;;
2656;SDS011;1338;48.176;11.792;2023-05-10T12:13:55;1.70;;;1.60;;
2656;SDS011;1338;48.176;11.792;2023-05-10T12:16:24;2.33;;;2.13;;
2656;SDS011;1338;48.176;11.792;2023-05-10T12:18:55;2.67;;;2.47;;
2656;SDS011;1338;48.176;11.792;2023-05-10T12:21:24;2.60;;;2.40;;
2656;SDS011;1338;48.176;11.792;2023-05-10T12:23:54;2.97;;;2.67;;
2656;SDS011;1338;48.176;11.792;2023-05-10T12:26:27;2.77;;;2.57;;
2656;SDS011;1338;48.176;11.792;2023-05-10T12:29:11;2.93;;;2.70;;
2656;SDS011;1338;48.176;11.792;2023-05-10T12:31:50;3.47;;;3.10;;
2656;SDS011;1338;48.176;11.792;2023-05-10T12:34:23;5.20;;;2.40;;
2656;SDS011;1338;48.176;11.792;2023-05-10T12:36:52;5.50;;;2.63;;
2656;SDS011;1338;48.176;11.792;2023-05-10T12:39:23;3.00;;;2.80;;
2656;SDS011;1338;48.176;11.792;2023-05-10T12:41:51;3.00;;;2.80;;
2656;SDS011;1338;48.176;11.792;2023-05-10T12:44:19;4.23;;;3.27;;
2656;SDS011;1338;48.176;11.792;2023-05-10T12:46:48;3.70;;;3.40;;
2656;SDS011;1338;48.176;11.792;2023-05-10T12:49:16;3.00;;;2.80;;
2656;SDS011;1338;48.176;11.792;2023-05-10T12:51:45;2.80;;;2.60;;
2656;SDS011;1338;48.176;11.792;2023-05-10T12:54:13;2.70;;;2.50;;
2656;SDS011;1338;48.176;11.792;2023-05-10T12:56:42;4.00;;;2.97;;
2656;SDS011;1338;48.176;11.792;2023-05-10T12:59:12;2.60;;;2.30;;
2656;SDS011;1338;48.176;11.792;2023-05-10T13:01:41;3.00;;;2.70;;
2656;SDS011;1338;48.176;11.792;2023-05-10T13:04:09;3.10;;;2.80;;
2656;SDS011;1338;48.176;11.792;2023-05-10T13:06:37;2.80;;;2.60;;
2656;SDS011;1338;48.176;11.792;2023-05-10T13:09:05;2.90;;;2.67;;
2656;SDS011;1338;48.176;11.792;2023-05-10T13:11:34;2.50;;;2.30;;
2656;SDS011;1338;48.176;11.792;2023-05-10T13:14:04;2.70;;;2.50;;
2656;SDS011;1338;48.176;11.792;2023-05-10T13:16:32;3.10;;;2.90;;
2656;SDS011;1338;48.176;11.792;2023-05-10T13:19:00;2.73;;;2.53;;
2656;SDS011;1338;48.176;11.792;2023-05-10T13:21:29;2.90;;;2.70;;
2656;SDS011;1338;48.176;11.792;2023-05-10T13:23:57;2.23;;;2.03;;
2656;SDS011;1338;48.176;11.792;2023-05-10T13:26:26;3.40;;;2.20;;
2656;SDS011;1338;48.176;11.792;2023-05-10T13:28:54;3.60;;;1.77;;
2656;SDS011;1338;48.176;11.792;2023-05-10T13:31:24;2.50;;;1.90;;
2656;SDS011;1338;48.176;11.792;2023-05-10T13:33:52;2.07;;;1.97;;
2656;SDS011;1338;48.176;11.792;2023-05-10T13:36:20;2.87;;;2.53;;
2656;SDS011;1338;48.176;11.792;2023-05-10T13:38:49;2.10;;;1.73;;
2656;SDS011;1338;48.176;11.792;2023-05-10T13:41:17;3.00;;;2.80;;
2656;SDS011;1338;48.176;11.792;2023-05-10T13:43:45;2.40;;;1.87;;
2656;SDS011;1338;48.176;11.792;2023-05-10T13:46:14;1.40;;;1.30;;
2656;SDS011;1338;48.176;11.792;2023-05-10T13:48:44;1.80;;;1.70;;
2656;SDS011;1338;48.176;11.792;2023-05-10T13:51:12;1.87;;;1.50;;
2656;SDS011;1338;48.176;11.792;2023-05-10T13:53:40;2.10;;;1.80;;
2656;SDS011;1338;48.176;11.792;2023-05-10T13:56:08;2.10;;;2.00;;
2656;SDS011;1338;48.176;11.792;2023-05-10T13:58:36;2.90;;;1.70;;
2656;SDS011;1338;48.176;11.792;2023-05-10T14:01:05;2.03;;;1.60;;
2656;SDS011;1338;48.176;11.792;2023-05-10T14:03:33;1.57;;;1.47;;
2656;SDS011;1338;48.176;11.792;2023-05-10T14:06:02;1.60;;;1.50;;
2656;SDS011;1338;48.176;11.792;2023-05-10T14:08:31;1.63;;;1.53;;
2656;SDS011;1338;48.176;11.792;2023-05-10T14:10:59;1.73;;;1.63;;
2656;SDS011;1338;48.176;11.792;2023-05-10T14:13:27;1.63;;;1.53;;
2656;SDS011;1338;48.176;11.792;2023-05-10T14:15:55;2.33;;;1.70;;
2656;SDS011;1338;48.176;11.792;2023-05-10T14:18:23;2.23;;;2.03;;
2656;SDS011;1338;48.176;11.792;2023-05-10T14:20:52;2.53;;;2.33;;
2656;SDS011;1338;48.176;11.792;2023-05-10T14:23:22;2.33;;;2.13;;
2656;SDS011;1338;48.176;11.792;2023-05-10T14:25:51;2.53;;;2.33;;
2656;SDS011;1338;48.176;11.792;2023-05-10T14:28:19;2.60;;;2.40;;
2656;SDS011;1338;48.176;11.792;2023-05-10T14:30:49;3.30;;;3.00;;
2656;SDS011;1338;48.176;11.792;2023-05-10T14:33:17;2.57;;;2.37;;
2656;SDS011;1338;48.176;11.792;2023-05-10T14:35:45;2.80;;;2.60;;
2656;SDS011;1338;48.176;11.792;2023-05-10T14:38:14;2.80;;;2.60;;
2656;SDS011;1338;48.176;11.792;2023-05-10T14:40:43;2.53;;;2.10;;
2656;SDS011;1338;48.176;11.792;2023-05-10T14:43:11;2.50;;;2.30;;
2656;SDS011;1338;48.176;11.792;2023-05-10T14:45:39;2.50;;;2.30;;
2656;SDS011;1338;48.176;11.792;2023-05-10T14:48:07;2.53;;;2.33;;
2656;SDS011;1338;48.176;11.792;2023-05-10T14:50:38;2.40;;;2.20;;
2656;SDS011;1338;48.176;11.792;2023-05-10T14:53:06;2.70;;;2.50;;
2656;SDS011;1338;48.176;11.792;2023-05-10T14:55:35;2.70;;;2.50;;
2656;SDS011;1338;48.176;11.792;2023-05-10T14:58:04;2.70;;;2.50;;
2656;SDS011;1338;48.176;11.792;2023-05-10T15:00:32;3.47;;;2.23;;
2656;SDS011;1338;48.176;11.792;2023-05-10T15:03:01;2.40;;;2.20;;
2656;SDS011;1338;48.176;11.792;2023-05-10T15:05:30;2.83;;;2.40;;
2656;SDS011;1338;48.176;11.792;2023-05-10T15:07:58;2.33;;;2.13;;
2656;SDS011;1338;48.176;11.792;2023-05-10T15:10:26;2.30;;;2.10;;
2656;SDS011;1338;48.176;11.792;2023-05-10T15:12:54;1.90;;;1.80;;
2656;SDS011;1338;48.176;11.792;2023-05-10T15:15:24;2.80;;;1.90;;
2656;SDS011;1338;48.176;11.792;2023-05-10T15:17:52;2.13;;;1.93;;
2656;SDS011;1338;48.176;11.792;2023-05-10T15:20:20;2.10;;;1.90;;
2656;SDS011;1338;48.176;11.792;2023-05-10T15:22:48;1.83;;;1.73;;
2656;SDS011;1338;48.176;11.792;2023-05-10T15:25:17;1.90;;;1.80;;